createdAt,value
2022-10-03T00:01:12.114Z,99.90
2022-10-03T00:04:11.128Z,99.90
2022-10-03T00:06:51.567Z,99.90
2022-10-03T00:09:47.230Z,99.90
2022-10-03T00:12:49.368Z,99.90
2022-10-03T00:15:34.831Z,99.90
2022-10-03T00:18:19.084Z,99.90
2022-10-03T00:20:49.580Z,99.90
2022-10-03T00:23:36.481Z,99.90
2022-10-03T00:26:30.832Z,99.90
2022-10-03T00:29:02.879Z,99.90
2022-10-03T00:31:59.928Z,99.90
2022-10-03T00:35:06.886Z,99.90
2022-10-03T00:37:44.048Z,99.90
2022-10-03T00:40:38.764Z,99.90
2022-10-03T00:43:17.049Z,99.90
2022-10-03T00:46:17.100Z,99.90
2022-10-03T00:49:01.774Z,99.90
2022-10-03T00:51:56.382Z,99.90
2022-10-03T00:55:04.053Z,99.90
2022-10-03T00:57:44.856Z,99.90
2022-10-03T01:00:19.216Z,99.90
2022-10-03T01:03:06.580Z,99.90
2022-10-03T01:06:16.260Z,99.90
2022-10-03T01:09:07.947Z,99.90
2022-10-03T01:11:55.804Z,99.90
2022-10-03T01:14:49.031Z,99.90
2022-10-03T01:17:34.171Z,99.90
2022-10-03T01:20:03.711Z,99.90
2022-10-03T01:22:51.499Z,99.90
2022-10-03T01:25:56.421Z,99.90
2022-10-03T01:28:51.803Z,99.90
2022-10-03T01:31:23.903Z,99.90
2022-10-03T01:34:12.901Z,99.90
2022-10-03T01:36:56.722Z,99.90
2022-10-03T01:39:46.741Z,99.90
2022-10-03T01:43:02.903Z,99.90
2022-10-03T01:45:52.805Z,99.90
2022-10-03T01:48:22.820Z,99.90
2022-10-03T01:51:01.884Z,99.90
2022-10-03T01:53:55.805Z,99.90
2022-10-03T01:56:35.764Z,99.90
2022-10-03T01:59:24.272Z,99.90
2022-10-03T02:02:01.738Z,99.90
2022-10-03T02:04:52.271Z,99.90
2022-10-03T02:07:33.915Z,99.90
2022-10-03T02:10:07.267Z,99.90
2022-10-03T02:12:48.172Z,99.90
2022-10-03T02:15:46.504Z,99.90
2022-10-03T02:18:42.372Z,99.90
2022-10-03T02:21:16.674Z,99.90
2022-10-03T02:23:46.004Z,99.90
2022-10-03T02:26:36.437Z,99.90
2022-10-03T02:29:47.428Z,99.90
2022-10-03T02:32:23.883Z,99.90
2022-10-03T02:35:14.973Z,99.90
2022-10-03T02:38:01.603Z,99.90
2022-10-03T02:40:57.007Z,99.90
2022-10-03T02:43:56.631Z,99.90
2022-10-03T02:46:50.539Z,99.90
2022-10-03T02:49:47.913Z,99.90
2022-10-03T02:52:26.509Z,99.90
2022-10-03T02:55:17.934Z,99.90
2022-10-03T02:58:05.832Z,99.90
2022-10-03T03:01:01.223Z,99.90
2022-10-03T03:03:54.926Z,99.90
2022-10-03T03:06:59.455Z,99.90
2022-10-03T03:09:40.013Z,99.90
2022-10-03T03:12:24.660Z,99.90
2022-10-03T03:15:09.509Z,99.90
2022-10-03T03:17:54.991Z,99.90
2022-10-03T03:20:33.424Z,99.90
2022-10-03T03:23:18.992Z,99.90
2022-10-03T03:26:10.748Z,99.90
2022-10-03T03:29:11.743Z,99.90
2022-10-03T03:31:49.162Z,99.90
2022-10-03T03:34:27.194Z,99.90
2022-10-03T03:37:23.245Z,99.90
2022-10-03T03:40:20.420Z,99.90
2022-10-03T03:43:17.686Z,99.90
2022-10-03T03:46:06.826Z,99.90
2022-10-03T03:48:37.686Z,99.90
2022-10-03T03:51:19.147Z,99.90
2022-10-03T03:54:13.795Z,99.90
2022-10-03T03:57:01.251Z,99.90
2022-10-03T03:59:48.655Z,99.90
2022-10-03T04:02:21.433Z,99.90
2022-10-03T04:05:00.156Z,99.90
2022-10-03T04:07:49.208Z,99.90
2022-10-03T04:10:45.819Z,99.90
2022-10-03T04:13:29.151Z,99.90
2022-10-03T04:16:48.944Z,99.90
2022-10-03T04:19:57.973Z,99.90
2022-10-03T04:22:35.317Z,99.90
2022-10-03T04:25:15.866Z,99.90
2022-10-03T04:27:57.696Z,99.90
2022-10-03T04:30:45.759Z,99.90
2022-10-03T04:33:44.583Z,99.90
2022-10-03T04:36:39.148Z,99.90
2022-10-03T04:39:28.639Z,99.90
2022-10-03T04:42:13.671Z,99.90
2022-10-03T04:44:43.050Z,99.90
2022-10-03T04:47:48.569Z,99.90
2022-10-03T04:50:43.938Z,99.90
2022-10-03T04:53:27.760Z,99.90
2022-10-03T04:56:16.126Z,99.90
2022-10-03T04:59:20.174Z,99.90
2022-10-03T05:02:22.527Z,99.90
2022-10-03T05:05:21.992Z,99.90
2022-10-03T05:07:51.558Z,99.90
2022-10-03T05:10:33.383Z,99.90
2022-10-03T05:13:16.572Z,99.90
2022-10-03T05:16:14.250Z,99.90
2022-10-03T05:18:45.598Z,99.90
2022-10-03T05:21:24.635Z,99.90
2022-10-03T05:24:21.508Z,99.90
2022-10-03T05:27:19.429Z,99.90
2022-10-03T05:30:18.114Z,99.90
2022-10-03T05:33:08.953Z,99.90
2022-10-03T05:35:42.253Z,99.90
2022-10-03T05:38:32.246Z,99.90
2022-10-03T05:41:26.146Z,99.90
2022-10-03T05:44:22.945Z,99.90
2022-10-03T05:47:45.714Z,99.90
2022-10-03T05:50:28.348Z,99.90
2022-10-03T05:53:34.385Z,99.90
2022-10-03T05:56:19.552Z,99.90
2022-10-03T05:59:18.354Z,99.90
2022-10-03T06:02:08.654Z,99.90
2022-10-03T06:05:09.683Z,99.90
2022-10-03T06:07:51.344Z,99.90
2022-10-03T06:10:55.276Z,99.90
2022-10-03T06:13:30.570Z,99.90
2022-10-03T06:16:44.413Z,99.90
2022-10-03T06:19:23.246Z,99.90
2022-10-03T06:22:14.552Z,99.90
2022-10-03T06:25:15.107Z,99.90
2022-10-03T06:28:06.166Z,99.90
2022-10-03T06:31:33.650Z,99.90
2022-10-03T06:34:33.394Z,99.90
2022-10-03T06:37:27.130Z,99.90
2022-10-03T06:40:22.979Z,99.90
2022-10-03T06:43:13.922Z,99.90
2022-10-03T06:45:59.508Z,99.90
2022-10-03T06:48:44.093Z,99.90
2022-10-03T06:51:57.183Z,99.90
2022-10-03T06:55:04.463Z,99.90
2022-10-03T06:58:01.432Z,99.90
2022-10-03T07:01:16.813Z,99.90
2022-10-03T07:03:49.317Z,99.90
2022-10-03T07:06:53.847Z,99.90
2022-10-03T07:10:15.051Z,99.90
2022-10-03T07:13:04.935Z,99.90
2022-10-03T07:16:08.750Z,99.90
2022-10-03T07:19:04.848Z,99.90
2022-10-03T07:21:52.402Z,99.90
2022-10-03T07:24:31.854Z,99.90
2022-10-03T07:27:21.023Z,99.90
2022-10-03T07:30:09.347Z,99.90
2022-10-03T07:33:05.259Z,99.90
2022-10-03T07:36:24.091Z,99.90
2022-10-03T07:39:16.182Z,99.90
2022-10-03T07:41:54.347Z,99.90
2022-10-03T07:44:45.378Z,99.90
2022-10-03T07:47:46.324Z,99.90
2022-10-03T07:50:28.319Z,99.90
2022-10-03T07:53:21.935Z,99.90
2022-10-03T07:55:55.083Z,99.90
2022-10-03T07:58:43.168Z,99.90
2022-10-03T08:01:28.516Z,99.90
2022-10-03T08:04:13.509Z,99.90
2022-10-03T08:06:43.455Z,99.90
2022-10-03T08:09:42.178Z,99.90
2022-10-03T08:12:33.634Z,99.90
2022-10-03T08:15:12.363Z,99.90
2022-10-03T08:18:16.699Z,99.90
2022-10-03T08:20:46.329Z,99.90
2022-10-03T08:23:23.683Z,99.90
2022-10-03T08:26:31.555Z,99.90
2022-10-03T08:29:16.997Z,99.90
2022-10-03T08:32:11.672Z,99.90
2022-10-03T08:35:20.875Z,99.90
2022-10-03T08:38:08.830Z,99.90
2022-10-03T08:40:56.991Z,99.90
2022-10-03T08:43:58.392Z,99.90
2022-10-03T08:46:43.249Z,99.90
2022-10-03T08:49:44.713Z,99.90
2022-10-03T08:52:48.231Z,99.90
2022-10-03T08:55:33.075Z,99.90
2022-10-03T08:58:11.669Z,99.90
2022-10-03T09:01:16.031Z,99.90
2022-10-03T09:04:19.910Z,99.90
2022-10-03T09:07:27.269Z,99.90
2022-10-03T09:10:13.026Z,99.90
2022-10-03T09:12:54.381Z,99.90
2022-10-03T09:15:24.899Z,99.90
2022-10-03T09:18:29.631Z,99.90
2022-10-03T09:21:15.594Z,99.90
2022-10-03T09:23:53.539Z,99.90
2022-10-03T09:26:29.439Z,99.90
2022-10-03T09:29:31.436Z,99.90
2022-10-03T09:32:19.902Z,99.90
2022-10-03T09:35:07.177Z,99.90
2022-10-03T09:38:11.867Z,99.90
2022-10-03T09:41:23.084Z,99.90
2022-10-03T09:44:26.816Z,99.90
2022-10-03T09:47:28.176Z,99.90
2022-10-03T09:50:19.616Z,99.90
2022-10-03T09:53:21.266Z,99.90
2022-10-03T09:56:28.595Z,99.90
2022-10-03T09:59:18.962Z,99.90
2022-10-03T10:02:00.937Z,99.90
2022-10-03T10:04:58.056Z,99.90
2022-10-03T10:07:36.962Z,99.90
2022-10-03T10:11:12.064Z,96.70
2022-10-03T10:14:12.780Z,90.40
2022-10-03T10:17:10.315Z,91.60
2022-10-03T10:20:12.439Z,89.30
2022-10-03T10:23:20.458Z,86.10
2022-10-03T10:26:09.700Z,86.20
2022-10-03T10:28:57.533Z,87.40
2022-10-03T10:31:27.467Z,89.10
2022-10-03T10:34:22.148Z,90.00
2022-10-03T10:37:00.985Z,91.00
2022-10-03T10:39:53.061Z,92.50
2022-10-03T10:42:34.611Z,92.40
2022-10-03T10:45:45.922Z,92.60
2022-10-03T10:48:50.318Z,92.00
2022-10-03T10:51:56.164Z,93.90
2022-10-03T10:54:44.840Z,93.10
2022-10-03T10:57:22.907Z,93.70
2022-10-03T10:59:49.547Z,95.60
2022-10-03T11:02:34.489Z,95.60
2022-10-03T11:05:41.376Z,92.90
2022-10-03T11:08:33.159Z,92.40
2022-10-03T11:11:36.081Z,92.80
2022-10-03T11:14:28.227Z,92.30
2022-10-03T11:17:13.037Z,93.10
2022-10-03T11:20:10.944Z,92.60
2022-10-03T11:22:49.580Z,92.90
2022-10-03T11:25:54.771Z,92.60
2022-10-03T11:28:51.725Z,92.40
2022-10-03T11:31:50.018Z,92.60
2022-10-03T11:34:46.388Z,93.10
2022-10-03T11:37:32.947Z,93.00
2022-10-03T11:40:11.572Z,93.30
2022-10-03T11:42:56.343Z,93.10
2022-10-03T11:45:33.680Z,90.70
2022-10-03T11:48:23.433Z,90.00
2022-10-03T11:51:03.233Z,85.30
2022-10-03T11:53:32.728Z,82.70
2022-10-03T11:56:08.163Z,80.50
2022-10-03T11:58:43.643Z,81.00
2022-10-03T12:01:34.379Z,80.30
2022-10-03T12:04:10.418Z,80.90
2022-10-03T12:07:07.621Z,79.80
2022-10-03T12:09:37.785Z,79.40
2022-10-03T12:12:30.184Z,79.50
2022-10-03T12:15:41.224Z,81.40
2022-10-03T12:18:39.906Z,83.70
2022-10-03T12:21:14.235Z,85.40
2022-10-03T12:24:20.532Z,84.80
2022-10-03T12:27:09.786Z,86.60
2022-10-03T12:29:40.624Z,89.00
2022-10-03T12:32:32.400Z,87.20
2022-10-03T12:35:10.973Z,89.60
2022-10-03T12:37:58.321Z,90.10
2022-10-03T12:40:34.088Z,90.30
2022-10-03T12:43:25.259Z,89.60
2022-10-03T12:46:05.959Z,89.50
2022-10-03T12:48:50.467Z,87.00
2022-10-03T12:51:42.952Z,83.50
2022-10-03T12:54:37.494Z,81.70
2022-10-03T12:57:36.611Z,83.80
2022-10-03T13:00:24.122Z,82.50
2022-10-03T13:03:12.039Z,80.50
2022-10-03T13:06:16.518Z,79.10
2022-10-03T13:08:49.135Z,72.80
2022-10-03T13:11:50.585Z,69.40
2022-10-03T13:14:29.367Z,71.40
2022-10-03T13:17:17.921Z,72.90
2022-10-03T13:20:00.441Z,72.80
2022-10-03T13:22:51.046Z,73.60
2022-10-03T13:25:31.940Z,73.00
2022-10-03T13:28:09.005Z,76.20
2022-10-03T13:31:08.502Z,75.90
2022-10-03T13:33:42.768Z,77.70
2022-10-03T13:36:28.530Z,78.40
2022-10-03T13:39:16.177Z,78.90
2022-10-03T13:41:59.619Z,81.00
2022-10-03T13:44:50.179Z,81.30
2022-10-03T13:47:45.005Z,83.80
2022-10-03T13:50:21.651Z,84.30
2022-10-03T13:53:12.146Z,85.40
2022-10-03T13:55:47.814Z,86.40
2022-10-03T13:58:19.425Z,86.30
2022-10-03T14:00:52.338Z,86.60
2022-10-03T14:03:25.088Z,87.70
2022-10-03T14:06:26.657Z,86.90
2022-10-03T14:09:20.449Z,84.90
2022-10-03T14:12:03.249Z,85.10
2022-10-03T14:14:50.487Z,83.60
2022-10-03T14:17:43.385Z,82.40
2022-10-03T14:20:26.063Z,81.20
2022-10-03T14:23:07.664Z,80.90
2022-10-03T14:26:12.092Z,80.90
2022-10-03T14:28:47.577Z,80.20
2022-10-03T14:31:33.337Z,80.90
2022-10-03T14:34:08.869Z,82.40
2022-10-03T14:36:45.397Z,82.20
2022-10-03T14:39:36.268Z,82.00
2022-10-03T14:42:18.884Z,83.20
2022-10-03T14:44:59.386Z,83.00
2022-10-03T14:47:32.730Z,83.30
2022-10-03T14:50:00.459Z,83.20
2022-10-03T14:52:49.982Z,84.80
2022-10-03T14:55:31.652Z,86.00
2022-10-03T14:58:11.346Z,86.50
2022-10-03T15:00:47.801Z,86.10
2022-10-03T15:03:20.365Z,87.10
2022-10-03T15:05:59.936Z,87.00
2022-10-03T15:08:37.520Z,87.70
2022-10-03T15:11:08.395Z,87.10
2022-10-03T15:13:50.972Z,88.00
2022-10-03T15:16:22.606Z,88.40
2022-10-03T15:19:04.933Z,87.50
2022-10-03T15:21:34.691Z,84.70
2022-10-03T15:24:06.527Z,83.70
2022-10-03T15:26:36.418Z,82.70
2022-10-03T15:29:07.740Z,81.90
2022-10-03T15:31:40.789Z,81.60
2022-10-03T15:34:25.887Z,81.40
2022-10-03T15:37:07.057Z,78.70
2022-10-03T15:39:43.849Z,78.70
2022-10-03T15:42:22.908Z,82.30
2022-10-03T15:44:53.736Z,83.50
2022-10-03T15:47:27.194Z,82.70
2022-10-03T15:50:28.135Z,81.20
2022-10-03T15:53:12.693Z,80.10
2022-10-03T15:55:56.722Z,78.70
2022-10-03T15:58:33.579Z,77.40
2022-10-03T16:01:15.532Z,76.50
2022-10-03T16:04:00.732Z,77.60
2022-10-03T16:06:35.629Z,79.60
2022-10-03T16:09:06.095Z,81.20
2022-10-03T16:11:49.867Z,83.10
2022-10-03T16:14:27.318Z,84.50
2022-10-03T16:16:59.834Z,83.10
2022-10-03T16:19:42.472Z,80.90
2022-10-03T16:22:30.065Z,78.60
2022-10-03T16:25:16.243Z,76.60
2022-10-03T16:28:08.708Z,76.10
2022-10-03T16:31:12.231Z,75.30
2022-10-03T16:33:55.852Z,75.20
2022-10-03T16:36:27.421Z,76.00
2022-10-03T16:39:04.582Z,77.20
2022-10-03T16:41:34.891Z,81.00
2022-10-03T16:44:04.432Z,83.20
2022-10-03T16:46:38.009Z,85.50
2022-10-03T16:49:44.330Z,87.70
2022-10-03T16:52:30.942Z,90.20
2022-10-03T16:55:02.822Z,91.40
2022-10-03T16:57:40.422Z,92.20
2022-10-03T17:00:16.061Z,93.00
2022-10-03T17:02:43.150Z,94.10
2022-10-03T17:05:16.464Z,94.70
2022-10-03T17:08:36.831Z,94.90
2022-10-03T17:10:57.964Z,95.90
2022-10-03T17:13:48.360Z,96.80
2022-10-03T17:16:47.696Z,97.40
2022-10-03T17:19:37.699Z,97.80
2022-10-03T17:22:20.868Z,98.70
2022-10-03T17:25:02.545Z,99.40
2022-10-03T17:27:40.565Z,99.90
2022-10-03T17:30:22.440Z,99.90
2022-10-03T17:32:57.667Z,99.90
2022-10-03T17:35:44.377Z,99.90
2022-10-03T17:38:49.850Z,99.90
2022-10-03T17:41:26.878Z,99.90
2022-10-03T17:44:04.759Z,99.90
2022-10-03T17:46:45.883Z,99.90
2022-10-03T17:49:15.573Z,99.90
2022-10-03T17:51:48.189Z,99.90
2022-10-03T17:54:17.095Z,99.90
2022-10-03T17:56:54.669Z,99.90
2022-10-03T17:59:32.781Z,99.90
2022-10-03T18:02:15.084Z,99.90
2022-10-03T18:04:44.768Z,99.90
2022-10-03T18:07:22.568Z,99.90
2022-10-03T18:09:51.720Z,99.90
2022-10-03T18:12:23.264Z,99.90
2022-10-03T18:14:53.845Z,99.90
2022-10-03T18:18:02.480Z,99.90
2022-10-03T18:20:41.196Z,99.90
2022-10-03T18:23:49.957Z,99.90
2022-10-03T18:26:37.580Z,99.90
2022-10-03T18:29:39.624Z,99.90
2022-10-03T18:32:19.585Z,99.90
2022-10-03T18:35:06.835Z,99.90
2022-10-03T18:37:56.020Z,99.90
2022-10-03T18:40:55.764Z,99.90
2022-10-03T18:43:33.881Z,99.90
2022-10-03T18:46:15.287Z,99.90
2022-10-03T18:49:30.068Z,99.90
2022-10-03T18:52:08.627Z,99.90
2022-10-03T18:54:38.366Z,99.90
2022-10-03T18:57:11.015Z,99.90
2022-10-03T18:59:53.470Z,99.90
2022-10-03T19:02:45.689Z,99.90
2022-10-03T19:05:28.190Z,99.90
2022-10-03T19:08:07.668Z,99.90
2022-10-03T19:10:41.054Z,99.90
2022-10-03T19:13:23.384Z,99.90
2022-10-03T19:16:14.205Z,99.90
2022-10-03T19:19:11.037Z,99.90
2022-10-03T19:21:40.547Z,99.90
2022-10-03T19:24:53.422Z,99.90
2022-10-03T19:27:18.662Z,99.90
2022-10-03T19:29:51.030Z,99.90
2022-10-03T19:32:43.763Z,99.90
2022-10-03T19:35:15.347Z,99.90
2022-10-03T19:37:49.801Z,99.90
2022-10-03T19:40:37.852Z,99.90
2022-10-03T19:43:27.590Z,99.90
2022-10-03T19:46:22.462Z,99.90
2022-10-03T19:48:57.973Z,99.90
2022-10-03T19:51:26.445Z,99.90
2022-10-03T19:53:57.225Z,99.90
2022-10-03T19:56:26.899Z,99.90
2022-10-03T19:59:18.302Z,99.90
2022-10-03T20:01:50.235Z,99.90
2022-10-03T20:04:36.553Z,99.90
2022-10-03T20:07:20.762Z,99.90
2022-10-03T20:10:00.241Z,99.90
2022-10-03T20:12:30.708Z,99.90
2022-10-03T20:15:24.277Z,99.90
2022-10-03T20:17:57.849Z,99.90
2022-10-03T20:20:25.107Z,99.90
2022-10-03T20:22:55.786Z,99.90
2022-10-03T20:25:33.971Z,99.90
2022-10-03T20:28:03.785Z,99.90
2022-10-03T20:30:50.423Z,99.90
2022-10-03T20:33:33.429Z,99.90
2022-10-03T20:36:05.529Z,99.90
2022-10-03T20:38:54.133Z,99.90
2022-10-03T20:42:05.255Z,99.90
2022-10-03T20:44:47.046Z,99.90
2022-10-03T20:47:25.281Z,99.90
2022-10-03T20:49:58.073Z,99.90
2022-10-03T20:52:26.227Z,99.90
2022-10-03T20:55:02.992Z,99.90
2022-10-03T20:57:52.693Z,99.90
2022-10-03T21:00:22.339Z,99.90
2022-10-03T21:02:58.479Z,99.90
2022-10-03T21:05:48.601Z,99.90
2022-10-03T21:08:32.813Z,99.90
2022-10-03T21:11:01.105Z,99.90
2022-10-03T21:13:36.528Z,99.90
2022-10-03T21:16:17.431Z,99.90
2022-10-03T21:18:47.793Z,99.90
2022-10-03T21:21:33.607Z,99.90
2022-10-03T21:24:40.125Z,99.90
2022-10-03T21:27:12.630Z,99.90
2022-10-03T21:29:40.778Z,99.90
2022-10-03T21:32:19.643Z,99.90
2022-10-03T21:35:16.505Z,99.90
2022-10-03T21:38:22.149Z,99.90
2022-10-03T21:41:29.194Z,99.90
2022-10-03T21:44:01.532Z,99.90
2022-10-03T21:46:28.844Z,99.90
2022-10-03T21:49:23.644Z,99.90
2022-10-03T21:51:51.951Z,99.90
2022-10-03T21:54:42.412Z,99.90
2022-10-03T21:57:26.033Z,99.90
2022-10-03T21:59:57.741Z,99.90
2022-10-03T22:02:36.260Z,99.90
2022-10-03T22:05:26.624Z,99.90
2022-10-03T22:07:53.361Z,99.90
2022-10-03T22:10:28.276Z,99.90
2022-10-03T22:13:06.839Z,99.90
2022-10-03T22:15:53.955Z,99.90
2022-10-03T22:18:21.802Z,99.90
2022-10-03T22:21:04.351Z,99.90
2022-10-03T22:24:02.163Z,99.90
2022-10-03T22:26:51.902Z,99.90
2022-10-03T22:29:49.659Z,99.90
2022-10-03T22:32:28.715Z,99.90
2022-10-03T22:35:32.205Z,99.90
2022-10-03T22:38:00.147Z,99.90
2022-10-03T22:40:31.361Z,99.90
2022-10-03T22:43:04.322Z,99.90
2022-10-03T22:45:33.888Z,99.90
2022-10-03T22:48:07.517Z,99.90
2022-10-03T22:50:40.059Z,99.90
2022-10-03T22:53:08.637Z,99.90
2022-10-03T22:55:36.590Z,99.90
2022-10-03T22:58:08.521Z,99.90
2022-10-03T23:00:35.754Z,99.90
2022-10-03T23:03:10.242Z,99.90
2022-10-03T23:05:58.440Z,99.90
2022-10-03T23:08:53.390Z,99.90
2022-10-03T23:11:25.280Z,99.90
2022-10-03T23:13:52.672Z,99.90
2022-10-03T23:16:36.905Z,99.90
2022-10-03T23:19:22.816Z,99.90
2022-10-03T23:21:51.415Z,99.90
2022-10-03T23:24:26.112Z,99.90
2022-10-03T23:27:13.605Z,99.90
2022-10-03T23:29:40.630Z,99.90
2022-10-03T23:32:09.812Z,99.90
2022-10-03T23:34:39.112Z,99.90
2022-10-03T23:37:13.057Z,99.90
2022-10-03T23:39:46.009Z,99.90
2022-10-03T23:42:18.599Z,99.90
2022-10-03T23:45:07.356Z,99.90
2022-10-03T23:47:41.331Z,99.90
2022-10-03T23:50:09.450Z,99.90
2022-10-03T23:53:00.139Z,99.90
2022-10-03T23:55:29.921Z,99.90
2022-10-03T23:57:59.769Z,99.90
